Weather at Menara Airport

Public forecast

Using degrees Celsius for public forecast. Weather courtesy of forecast.io.

Current aviation weather report (METAR) for Menara Airport

Retrieved 2022/01/22 21:00 UTC (22 minutes ago):

GMMX 222100Z 15004KT 130V200 8000 NSC 22/01 Q1019 NOSIG

Aviation forecast (TAF) for Menara Airport

Retrieved 2022/01/22 18:45 UTC (3 hours ago):

TAF GMMX 221700Z 2218/2324 06006KT 8000 SCT033 SCT100 TEMPO 2219/2223 34016KT